sensor_id;sensor_type;location;lat;lon;timestamp;P1;durP1;ratioP1;P2;durP2;ratioP2
79755;SDS011;69239;50.678;12.280;2023-07-24T00:00:19;3.40;;;2.40;;
79755;SDS011;69239;50.678;12.280;2023-07-24T00:02:44;4.85;;;2.53;;
79755;SDS011;69239;50.678;12.280;2023-07-24T00:05:10;4.32;;;2.80;;
79755;SDS011;69239;50.678;12.280;2023-07-24T00:07:35;4.43;;;2.97;;
79755;SDS011;69239;50.678;12.280;2023-07-24T00:10:01;4.47;;;3.10;;
79755;SDS011;69239;50.678;12.280;2023-07-24T00:12:26;5.10;;;3.10;;
79755;SDS011;69239;50.678;12.280;2023-07-24T00:14:52;5.43;;;3.25;;
79755;SDS011;69239;50.678;12.280;2023-07-24T00:17:17;4.50;;;2.78;;
79755;SDS011;69239;50.678;12.280;2023-07-24T00:19:43;5.00;;;3.00;;
79755;SDS011;69239;50.678;12.280;2023-07-24T00:22:08;5.60;;;2.85;;
79755;SDS011;69239;50.678;12.280;2023-07-24T00:24:34;6.05;;;3.05;;
79755;SDS011;69239;50.678;12.280;2023-07-24T00:26:59;5.13;;;2.75;;
79755;SDS011;69239;50.678;12.280;2023-07-24T00:29:24;3.05;;;2.13;;
79755;SDS011;69239;50.678;12.280;2023-07-24T00:31:50;3.75;;;2.50;;
79755;SDS011;69239;50.678;12.280;2023-07-24T00:34:15;5.82;;;2.50;;
79755;SDS011;69239;50.678;12.280;2023-07-24T00:36:40;4.85;;;2.80;;
79755;SDS011;69239;50.678;12.280;2023-07-24T00:39:06;4.65;;;2.40;;
79755;SDS011;69239;50.678;12.280;2023-07-24T00:41:31;4.65;;;2.55;;
79755;SDS011;69239;50.678;12.280;2023-07-24T00:43:57;4.35;;;2.53;;
79755;SDS011;69239;50.678;12.280;2023-07-24T00:46:23;3.88;;;2.65;;
79755;SDS011;69239;50.678;12.280;2023-07-24T00:48:49;4.47;;;2.40;;
79755;SDS011;69239;50.678;12.280;2023-07-24T00:51:15;5.32;;;2.60;;
79755;SDS011;69239;50.678;12.280;2023-07-24T00:53:40;4.55;;;2.90;;
79755;SDS011;69239;50.678;12.280;2023-07-24T00:56:06;4.43;;;2.80;;
79755;SDS011;69239;50.678;12.280;2023-07-24T00:58:33;4.35;;;2.97;;
79755;SDS011;69239;50.678;12.280;2023-07-24T01:01:01;3.65;;;2.50;;
79755;SDS011;69239;50.678;12.280;2023-07-24T01:03:30;5.80;;;2.53;;
79755;SDS011;69239;50.678;12.280;2023-07-24T01:08:23;4.10;;;2.45;;
79755;SDS011;69239;50.678;12.280;2023-07-24T01:10:48;3.65;;;2.63;;
79755;SDS011;69239;50.678;12.280;2023-07-24T01:13:19;4.82;;;2.90;;
79755;SDS011;69239;50.678;12.280;2023-07-24T01:18:13;4.53;;;2.60;;
79755;SDS011;69239;50.678;12.280;2023-07-24T01:20:46;5.50;;;2.90;;
79755;SDS011;69239;50.678;12.280;2023-07-24T01:26:15;3.58;;;2.70;;
79755;SDS011;69239;50.678;12.280;2023-07-24T01:28:41;3.50;;;2.15;;
79755;SDS011;69239;50.678;12.280;2023-07-24T01:31:07;4.18;;;2.72;;
79755;SDS011;69239;50.678;12.280;2023-07-24T01:33:32;4.88;;;2.22;;
79755;SDS011;69239;50.678;12.280;2023-07-24T01:36:00;4.35;;;2.55;;
79755;SDS011;69239;50.678;12.280;2023-07-24T01:38:27;4.20;;;2.33;;
79755;SDS011;69239;50.678;12.280;2023-07-24T01:40:54;3.33;;;2.47;;
79755;SDS011;69239;50.678;12.280;2023-07-24T01:43:20;4.00;;;2.50;;
79755;SDS011;69239;50.678;12.280;2023-07-24T01:45:45;5.00;;;2.53;;
79755;SDS011;69239;50.678;12.280;2023-07-24T01:48:11;4.40;;;2.70;;
79755;SDS011;69239;50.678;12.280;2023-07-24T01:50:36;4.68;;;2.65;;
79755;SDS011;69239;50.678;12.280;2023-07-24T01:53:01;5.38;;;2.60;;
79755;SDS011;69239;50.678;12.280;2023-07-24T01:55:27;4.93;;;2.50;;
79755;SDS011;69239;50.678;12.280;2023-07-24T01:57:52;3.95;;;2.63;;
79755;SDS011;69239;50.678;12.280;2023-07-24T02:00:18;4.60;;;3.05;;
79755;SDS011;69239;50.678;12.280;2023-07-24T02:02:43;7.18;;;2.78;;
79755;SDS011;69239;50.678;12.280;2023-07-24T02:05:09;4.93;;;2.53;;
79755;SDS011;69239;50.678;12.280;2023-07-24T02:07:34;4.32;;;2.78;;
79755;SDS011;69239;50.678;12.280;2023-07-24T02:10:00;6.22;;;2.67;;
79755;SDS011;69239;50.678;12.280;2023-07-24T02:12:25;5.80;;;2.85;;
79755;SDS011;69239;50.678;12.280;2023-07-24T02:14:50;4.30;;;2.67;;
79755;SDS011;69239;50.678;12.280;2023-07-24T02:17:17;4.25;;;2.53;;
79755;SDS011;69239;50.678;12.280;2023-07-24T02:19:43;5.53;;;3.03;;
79755;SDS011;69239;50.678;12.280;2023-07-24T02:22:08;5.38;;;2.70;;
79755;SDS011;69239;50.678;12.280;2023-07-24T02:24:34;5.05;;;2.97;;
79755;SDS011;69239;50.678;12.280;2023-07-24T02:27:00;4.53;;;2.60;;
79755;SDS011;69239;50.678;12.280;2023-07-24T02:29:25;5.00;;;2.80;;
79755;SDS011;69239;50.678;12.280;2023-07-24T02:31:51;4.90;;;2.70;;
79755;SDS011;69239;50.678;12.280;2023-07-24T02:34:16;5.07;;;2.35;;
79755;SDS011;69239;50.678;12.280;2023-07-24T02:36:41;4.28;;;2.78;;
79755;SDS011;69239;50.678;12.280;2023-07-24T02:39:07;4.82;;;2.97;;
79755;SDS011;69239;50.678;12.280;2023-07-24T02:41:32;4.60;;;3.03;;
79755;SDS011;69239;50.678;12.280;2023-07-24T02:43:58;6.30;;;3.00;;
79755;SDS011;69239;50.678;12.280;2023-07-24T02:46:23;4.40;;;2.80;;
79755;SDS011;69239;50.678;12.280;2023-07-24T02:48:50;5.63;;;3.10;;
79755;SDS011;69239;50.678;12.280;2023-07-24T02:51:16;5.20;;;2.88;;
79755;SDS011;69239;50.678;12.280;2023-07-24T02:53:41;4.82;;;2.90;;
79755;SDS011;69239;50.678;12.280;2023-07-24T02:56:06;4.95;;;3.03;;
79755;SDS011;69239;50.678;12.280;2023-07-24T02:58:32;5.40;;;3.13;;
79755;SDS011;69239;50.678;12.280;2023-07-24T03:01:03;5.65;;;3.45;;
79755;SDS011;69239;50.678;12.280;2023-07-24T03:03:31;6.32;;;2.75;;
79755;SDS011;69239;50.678;12.280;2023-07-24T03:05:56;4.70;;;2.92;;
79755;SDS011;69239;50.678;12.280;2023-07-24T03:08:22;5.07;;;2.83;;
79755;SDS011;69239;50.678;12.280;2023-07-24T03:10:47;5.18;;;3.08;;
79755;SDS011;69239;50.678;12.280;2023-07-24T03:13:13;5.38;;;3.58;;
79755;SDS011;69239;50.678;12.280;2023-07-24T03:15:38;4.80;;;3.27;;
79755;SDS011;69239;50.678;12.280;2023-07-24T03:18:03;6.50;;;2.92;;
79755;SDS011;69239;50.678;12.280;2023-07-24T03:20:29;6.07;;;3.53;;
79755;SDS011;69239;50.678;12.280;2023-07-24T03:22:54;5.43;;;2.85;;
79755;SDS011;69239;50.678;12.280;2023-07-24T03:25:19;4.43;;;2.67;;
79755;SDS011;69239;50.678;12.280;2023-07-24T03:27:45;5.43;;;3.40;;
79755;SDS011;69239;50.678;12.280;2023-07-24T03:30:10;4.90;;;3.25;;
79755;SDS011;69239;50.678;12.280;2023-07-24T03:32:36;5.30;;;3.25;;
79755;SDS011;69239;50.678;12.280;2023-07-24T03:35:03;6.38;;;3.60;;
79755;SDS011;69239;50.678;12.280;2023-07-24T03:37:30;5.35;;;2.70;;
79755;SDS011;69239;50.678;12.280;2023-07-24T03:39:56;4.95;;;2.80;;
79755;SDS011;69239;50.678;12.280;2023-07-24T03:42:27;5.93;;;3.60;;
79755;SDS011;69239;50.678;12.280;2023-07-24T03:44:53;5.32;;;2.92;;
79755;SDS011;69239;50.678;12.280;2023-07-24T03:47:19;4.30;;;2.72;;
79755;SDS011;69239;50.678;12.280;2023-07-24T03:49:44;5.03;;;3.40;;
79755;SDS011;69239;50.678;12.280;2023-07-24T03:52:10;6.07;;;3.15;;
79755;SDS011;69239;50.678;12.280;2023-07-24T03:54:35;4.70;;;2.80;;
79755;SDS011;69239;50.678;12.280;2023-07-24T03:57:00;6.07;;;3.25;;
79755;SDS011;69239;50.678;12.280;2023-07-24T03:59:26;5.60;;;2.95;;
79755;SDS011;69239;50.678;12.280;2023-07-24T04:01:51;8.70;;;3.60;;
79755;SDS011;69239;50.678;12.280;2023-07-24T04:04:16;6.28;;;3.00;;
79755;SDS011;69239;50.678;12.280;2023-07-24T04:06:42;5.65;;;3.30;;
79755;SDS011;69239;50.678;12.280;2023-07-24T04:09:07;5.03;;;2.97;;
79755;SDS011;69239;50.678;12.280;2023-07-24T04:11:33;4.88;;;2.97;;
79755;SDS011;69239;50.678;12.280;2023-07-24T04:13:58;6.97;;;3.15;;
79755;SDS011;69239;50.678;12.280;2023-07-24T04:16:23;4.10;;;2.92;;
79755;SDS011;69239;50.678;12.280;2023-07-24T04:18:49;4.90;;;3.03;;
79755;SDS011;69239;50.678;12.280;2023-07-24T04:21:14;7.25;;;3.40;;
79755;SDS011;69239;50.678;12.280;2023-07-24T04:23:39;5.45;;;3.38;;
79755;SDS011;69239;50.678;12.280;2023-07-24T04:26:05;5.80;;;3.13;;
79755;SDS011;69239;50.678;12.280;2023-07-24T04:28:30;4.90;;;3.38;;
79755;SDS011;69239;50.678;12.280;2023-07-24T04:30:59;8.75;;;3.42;;
79755;SDS011;69239;50.678;12.280;2023-07-24T04:33:25;4.65;;;3.33;;
79755;SDS011;69239;50.678;12.280;2023-07-24T04:35:52;5.45;;;3.22;;
79755;SDS011;69239;50.678;12.280;2023-07-24T04:38:18;7.25;;;2.97;;
79755;SDS011;69239;50.678;12.280;2023-07-24T04:40:43;4.93;;;3.30;;
79755;SDS011;69239;50.678;12.280;2023-07-24T04:43:10;5.40;;;2.88;;
79755;SDS011;69239;50.678;12.280;2023-07-24T04:45:35;6.00;;;3.67;;
79755;SDS011;69239;50.678;12.280;2023-07-24T04:48:00;4.75;;;2.97;;
79755;SDS011;69239;50.678;12.280;2023-07-24T04:50:26;5.88;;;3.50;;
79755;SDS011;69239;50.678;12.280;2023-07-24T04:52:51;6.43;;;3.63;;
79755;SDS011;69239;50.678;12.280;2023-07-24T04:55:17;5.05;;;3.17;;
79755;SDS011;69239;50.678;12.280;2023-07-24T04:57:42;6.07;;;3.20;;
79755;SDS011;69239;50.678;12.280;2023-07-24T05:00:07;7.57;;;3.15;;
79755;SDS011;69239;50.678;12.280;2023-07-24T05:02:33;7.63;;;3.03;;
79755;SDS011;69239;50.678;12.280;2023-07-24T05:04:59;7.28;;;3.08;;
79755;SDS011;69239;50.678;12.280;2023-07-24T05:07:24;4.63;;;3.05;;
79755;SDS011;69239;50.678;12.280;2023-07-24T05:09:49;9.32;;;3.40;;
79755;SDS011;69239;50.678;12.280;2023-07-24T05:12:15;7.53;;;3.45;;
79755;SDS011;69239;50.678;12.280;2023-07-24T05:14:40;6.53;;;3.35;;
79755;SDS011;69239;50.678;12.280;2023-07-24T05:17:05;8.35;;;3.08;;
79755;SDS011;69239;50.678;12.280;2023-07-24T05:19:30;7.90;;;3.40;;
79755;SDS011;69239;50.678;12.280;2023-07-24T05:21:56;7.43;;;3.40;;
79755;SDS011;69239;50.678;12.280;2023-07-24T05:24:21;8.60;;;3.65;;
79755;SDS011;69239;50.678;12.280;2023-07-24T05:26:46;8.25;;;3.30;;
79755;SDS011;69239;50.678;12.280;2023-07-24T05:29:12;5.40;;;3.10;;
79755;SDS011;69239;50.678;12.280;2023-07-24T05:31:37;7.35;;;3.65;;
79755;SDS011;69239;50.678;12.280;2023-07-24T05:36:30;6.75;;;3.35;;
79755;SDS011;69239;50.678;12.280;2023-07-24T05:38:55;8.40;;;3.63;;
79755;SDS011;69239;50.678;12.280;2023-07-24T05:41:22;6.75;;;3.30;;
79755;SDS011;69239;50.678;12.280;2023-07-24T05:43:48;7.57;;;3.38;;
79755;SDS011;69239;50.678;12.280;2023-07-24T05:46:13;7.30;;;3.22;;
79755;SDS011;69239;50.678;12.280;2023-07-24T05:48:39;6.00;;;3.80;;
79755;SDS011;69239;50.678;12.280;2023-07-24T05:51:04;5.82;;;3.30;;
79755;SDS011;69239;50.678;12.280;2023-07-24T05:53:29;5.88;;;3.63;;
79755;SDS011;69239;50.678;12.280;2023-07-24T05:56:01;6.72;;;3.40;;
79755;SDS011;69239;50.678;12.280;2023-07-24T05:58:27;6.38;;;3.47;;
79755;SDS011;69239;50.678;12.280;2023-07-24T06:00:53;7.07;;;3.80;;
79755;SDS011;69239;50.678;12.280;2023-07-24T06:03:20;5.90;;;3.55;;
79755;SDS011;69239;50.678;12.280;2023-07-24T06:05:46;8.25;;;4.03;;
79755;SDS011;69239;50.678;12.280;2023-07-24T06:08:15;7.03;;;4.28;;
79755;SDS011;69239;50.678;12.280;2023-07-24T06:10:41;6.15;;;3.65;;
79755;SDS011;69239;50.678;12.280;2023-07-24T06:13:06;5.70;;;3.95;;
79755;SDS011;69239;50.678;12.280;2023-07-24T06:15:31;6.63;;;3.50;;
79755;SDS011;69239;50.678;12.280;2023-07-24T06:17:57;7.03;;;3.87;;
79755;SDS011;69239;50.678;12.280;2023-07-24T06:20:22;5.65;;;3.88;;
79755;SDS011;69239;50.678;12.280;2023-07-24T06:22:47;9.77;;;4.20;;
79755;SDS011;69239;50.678;12.280;2023-07-24T06:25:13;7.63;;;3.80;;
79755;SDS011;69239;50.678;12.280;2023-07-24T06:27:38;7.03;;;4.18;;
79755;SDS011;69239;50.678;12.280;2023-07-24T06:30:04;7.75;;;4.38;;
79755;SDS011;69239;50.678;12.280;2023-07-24T06:32:39;7.05;;;4.38;;
79755;SDS011;69239;50.678;12.280;2023-07-24T06:35:04;9.32;;;3.78;;
79755;SDS011;69239;50.678;12.280;2023-07-24T06:37:30;6.55;;;3.83;;
79755;SDS011;69239;50.678;12.280;2023-07-24T06:39:56;11.25;;;4.68;;
79755;SDS011;69239;50.678;12.280;2023-07-24T06:42:21;6.85;;;3.92;;
79755;SDS011;69239;50.678;12.280;2023-07-24T06:44:46;8.80;;;4.05;;
79755;SDS011;69239;50.678;12.280;2023-07-24T06:47:12;7.40;;;4.45;;
79755;SDS011;69239;50.678;12.280;2023-07-24T06:49:37;8.70;;;4.20;;
79755;SDS011;69239;50.678;12.280;2023-07-24T06:52:02;9.43;;;4.10;;
79755;SDS011;69239;50.678;12.280;2023-07-24T06:54:28;6.90;;;4.28;;
79755;SDS011;69239;50.678;12.280;2023-07-24T06:56:53;8.70;;;4.72;;
79755;SDS011;69239;50.678;12.280;2023-07-24T06:59:19;7.80;;;4.22;;
79755;SDS011;69239;50.678;12.280;2023-07-24T07:01:44;7.80;;;4.43;;
79755;SDS011;69239;50.678;12.280;2023-07-24T07:04:09;8.60;;;4.22;;
79755;SDS011;69239;50.678;12.280;2023-07-24T07:06:35;7.45;;;4.65;;
79755;SDS011;69239;50.678;12.280;2023-07-24T07:09:00;7.95;;;4.30;;
79755;SDS011;69239;50.678;12.280;2023-07-24T07:11:25;6.18;;;4.20;;
79755;SDS011;69239;50.678;12.280;2023-07-24T07:13:51;7.15;;;4.05;;
79755;SDS011;69239;50.678;12.280;2023-07-24T07:16:16;7.00;;;4.47;;
79755;SDS011;69239;50.678;12.280;2023-07-24T07:18:43;6.85;;;4.20;;
79755;SDS011;69239;50.678;12.280;2023-07-24T07:21:09;8.20;;;4.20;;
79755;SDS011;69239;50.678;12.280;2023-07-24T07:23:34;6.77;;;4.10;;
79755;SDS011;69239;50.678;12.280;2023-07-24T07:26:00;8.13;;;4.75;;
79755;SDS011;69239;50.678;12.280;2023-07-24T07:28:25;6.47;;;4.10;;
79755;SDS011;69239;50.678;12.280;2023-07-24T07:30:50;7.72;;;4.13;;
79755;SDS011;69239;50.678;12.280;2023-07-24T07:33:16;6.65;;;3.90;;
79755;SDS011;69239;50.678;12.280;2023-07-24T07:35:41;8.32;;;4.18;;
79755;SDS011;69239;50.678;12.280;2023-07-24T07:38:06;8.02;;;4.20;;
79755;SDS011;69239;50.678;12.280;2023-07-24T07:40:32;6.47;;;3.70;;
79755;SDS011;69239;50.678;12.280;2023-07-24T07:42:58;6.30;;;3.53;;
79755;SDS011;69239;50.678;12.280;2023-07-24T07:45:24;8.40;;;3.92;;
79755;SDS011;69239;50.678;12.280;2023-07-24T07:47:49;6.85;;;4.10;;
79755;SDS011;69239;50.678;12.280;2023-07-24T07:50:15;7.20;;;4.15;;
79755;SDS011;69239;50.678;12.280;2023-07-24T07:52:40;7.38;;;4.47;;
79755;SDS011;69239;50.678;12.280;2023-07-24T07:55:06;8.40;;;4.90;;
79755;SDS011;69239;50.678;12.280;2023-07-24T07:57:33;6.88;;;4.15;;
79755;SDS011;69239;50.678;12.280;2023-07-24T08:00:00;7.47;;;4.13;;
79755;SDS011;69239;50.678;12.280;2023-07-24T08:02:25;5.85;;;4.13;;
79755;SDS011;69239;50.678;12.280;2023-07-24T08:04:50;7.63;;;3.97;;
79755;SDS011;69239;50.678;12.280;2023-07-24T08:07:16;6.82;;;4.18;;
79755;SDS011;69239;50.678;12.280;2023-07-24T08:09:41;7.43;;;4.05;;
79755;SDS011;69239;50.678;12.280;2023-07-24T08:12:07;8.60;;;4.55;;
79755;SDS011;69239;50.678;12.280;2023-07-24T08:14:32;7.53;;;4.03;;
79755;SDS011;69239;50.678;12.280;2023-07-24T08:16:58;7.00;;;4.03;;
79755;SDS011;69239;50.678;12.280;2023-07-24T08:19:23;6.47;;;4.03;;
79755;SDS011;69239;50.678;12.280;2023-07-24T08:21:48;6.38;;;3.75;;
79755;SDS011;69239;50.678;12.280;2023-07-24T08:24:14;5.15;;;3.20;;
79755;SDS011;69239;50.678;12.280;2023-07-24T08:26:39;5.43;;;3.67;;
79755;SDS011;69239;50.678;12.280;2023-07-24T08:29:05;4.97;;;3.30;;
79755;SDS011;69239;50.678;12.280;2023-07-24T08:31:30;7.15;;;3.33;;
79755;SDS011;69239;50.678;12.280;2023-07-24T08:33:56;5.45;;;3.45;;
79755;SDS011;69239;50.678;12.280;2023-07-24T08:36:21;5.70;;;3.47;;
79755;SDS011;69239;50.678;12.280;2023-07-24T08:38:46;4.95;;;3.30;;
79755;SDS011;69239;50.678;12.280;2023-07-24T08:41:12;5.10;;;3.05;;
79755;SDS011;69239;50.678;12.280;2023-07-24T08:43:40;5.60;;;3.42;;
79755;SDS011;69239;50.678;12.280;2023-07-24T08:46:06;5.25;;;3.00;;
79755;SDS011;69239;50.678;12.280;2023-07-24T08:48:33;4.60;;;3.28;;
79755;SDS011;69239;50.678;12.280;2023-07-24T08:51:06;6.53;;;3.38;;
79755;SDS011;69239;50.678;12.280;2023-07-24T08:53:39;5.22;;;3.42;;
79755;SDS011;69239;50.678;12.280;2023-07-24T08:56:06;5.30;;;3.45;;
79755;SDS011;69239;50.678;12.280;2023-07-24T08:58:33;6.18;;;3.80;;
79755;SDS011;69239;50.678;12.280;2023-07-24T09:01:00;8.02;;;4.00;;
79755;SDS011;69239;50.678;12.280;2023-07-24T09:03:26;7.90;;;4.45;;
79755;SDS011;69239;50.678;12.280;2023-07-24T09:05:52;8.05;;;5.25;;
79755;SDS011;69239;50.678;12.280;2023-07-24T09:11:00;7.75;;;3.90;;
79755;SDS011;69239;50.678;12.280;2023-07-24T09:13:26;7.82;;;5.10;;
79755;SDS011;69239;50.678;12.280;2023-07-24T09:15:53;7.70;;;4.63;;
79755;SDS011;69239;50.678;12.280;2023-07-24T09:18:18;8.40;;;4.95;;
79755;SDS011;69239;50.678;12.280;2023-07-24T09:20:44;8.23;;;4.78;;
79755;SDS011;69239;50.678;12.280;2023-07-24T09:23:11;8.20;;;4.97;;
79755;SDS011;69239;50.678;12.280;2023-07-24T09:25:38;9.68;;;4.68;;
79755;SDS011;69239;50.678;12.280;2023-07-24T09:28:14;8.88;;;5.35;;
79755;SDS011;69239;50.678;12.280;2023-07-24T09:30:42;8.52;;;4.63;;
79755;SDS011;69239;50.678;12.280;2023-07-24T09:33:17;8.77;;;4.93;;
79755;SDS011;69239;50.678;12.280;2023-07-24T09:35:42;7.60;;;4.47;;
79755;SDS011;69239;50.678;12.280;2023-07-24T09:38:08;8.20;;;5.13;;
79755;SDS011;69239;50.678;12.280;2023-07-24T09:40:39;8.70;;;5.00;;
79755;SDS011;69239;50.678;12.280;2023-07-24T09:45:43;6.85;;;4.20;;
79755;SDS011;69239;50.678;12.280;2023-07-24T09:48:09;7.95;;;4.80;;
79755;SDS011;69239;50.678;12.280;2023-07-24T09:50:38;7.40;;;5.20;;
79755;SDS011;69239;50.678;12.280;2023-07-24T09:53:04;8.65;;;4.68;;
79755;SDS011;69239;50.678;12.280;2023-07-24T09:55:34;7.75;;;4.63;;
79755;SDS011;69239;50.678;12.280;2023-07-24T09:58:04;8.35;;;4.80;;
79755;SDS011;69239;50.678;12.280;2023-07-24T10:00:31;10.00;;;5.13;;
79755;SDS011;69239;50.678;12.280;2023-07-24T10:02:57;7.10;;;4.53;;
79755;SDS011;69239;50.678;12.280;2023-07-24T10:05:23;7.95;;;4.53;;
79755;SDS011;69239;50.678;12.280;2023-07-24T10:07:49;8.95;;;5.38;;
79755;SDS011;69239;50.678;12.280;2023-07-24T10:10:16;8.55;;;5.03;;
79755;SDS011;69239;50.678;12.280;2023-07-24T10:12:42;9.07;;;5.10;;
79755;SDS011;69239;50.678;12.280;2023-07-24T10:15:08;13.10;;;5.28;;
79755;SDS011;69239;50.678;12.280;2023-07-24T10:17:36;9.80;;;5.07;;
79755;SDS011;69239;50.678;12.280;2023-07-24T10:20:06;7.85;;;4.90;;
79755;SDS011;69239;50.678;12.280;2023-07-24T10:22:35;10.13;;;5.20;;
79755;SDS011;69239;50.678;12.280;2023-07-24T10:25:06;7.10;;;4.75;;
79755;SDS011;69239;50.678;12.280;2023-07-24T10:27:35;8.30;;;5.55;;
79755;SDS011;69239;50.678;12.280;2023-07-24T10:30:01;9.23;;;5.20;;
79755;SDS011;69239;50.678;12.280;2023-07-24T10:32:27;7.97;;;5.00;;
79755;SDS011;69239;50.678;12.280;2023-07-24T10:35:00;8.85;;;5.18;;
79755;SDS011;69239;50.678;12.280;2023-07-24T10:37:33;8.93;;;5.55;;
79755;SDS011;69239;50.678;12.280;2023-07-24T10:40:00;9.55;;;5.18;;
79755;SDS011;69239;50.678;12.280;2023-07-24T10:42:25;9.63;;;5.00;;
79755;SDS011;69239;50.678;12.280;2023-07-24T10:45:01;9.27;;;5.85;;
79755;SDS011;69239;50.678;12.280;2023-07-24T10:47:35;7.88;;;5.13;;
79755;SDS011;69239;50.678;12.280;2023-07-24T10:50:01;8.25;;;4.80;;
79755;SDS011;69239;50.678;12.280;2023-07-24T10:52:31;10.45;;;5.47;;
79755;SDS011;69239;50.678;12.280;2023-07-24T10:55:02;7.90;;;4.88;;
79755;SDS011;69239;50.678;12.280;2023-07-24T10:57:31;6.50;;;4.53;;
79755;SDS011;69239;50.678;12.280;2023-07-24T10:59:57;7.95;;;5.00;;
79755;SDS011;69239;50.678;12.280;2023-07-24T11:02:23;8.38;;;5.47;;
79755;SDS011;69239;50.678;12.280;2023-07-24T11:04:48;10.23;;;5.72;;
79755;SDS011;69239;50.678;12.280;2023-07-24T11:07:14;7.53;;;4.68;;
79755;SDS011;69239;50.678;12.280;2023-07-24T11:09:40;8.48;;;4.43;;
79755;SDS011;69239;50.678;12.280;2023-07-24T11:12:15;6.60;;;4.63;;
79755;SDS011;69239;50.678;12.280;2023-07-24T11:14:52;7.90;;;4.30;;
79755;SDS011;69239;50.678;12.280;2023-07-24T11:17:21;8.77;;;4.65;;
79755;SDS011;69239;50.678;12.280;2023-07-24T11:19:47;6.38;;;4.07;;
79755;SDS011;69239;50.678;12.280;2023-07-24T11:22:12;9.30;;;4.53;;
79755;SDS011;69239;50.678;12.280;2023-07-24T11:24:42;7.70;;;3.95;;
79755;SDS011;69239;50.678;12.280;2023-07-24T11:27:10;7.40;;;4.20;;
79755;SDS011;69239;50.678;12.280;2023-07-24T11:29:38;8.13;;;4.22;;
79755;SDS011;69239;50.678;12.280;2023-07-24T11:32:04;6.65;;;4.00;;
79755;SDS011;69239;50.678;12.280;2023-07-24T11:34:30;7.30;;;4.32;;
79755;SDS011;69239;50.678;12.280;2023-07-24T11:36:55;8.27;;;4.82;;
79755;SDS011;69239;50.678;12.280;2023-07-24T11:39:22;8.35;;;4.68;;
79755;SDS011;69239;50.678;12.280;2023-07-24T11:41:48;7.90;;;4.88;;
79755;SDS011;69239;50.678;12.280;2023-07-24T11:44:13;8.40;;;4.97;;
79755;SDS011;69239;50.678;12.280;2023-07-24T11:46:41;6.50;;;3.80;;
79755;SDS011;69239;50.678;12.280;2023-07-24T11:49:08;5.60;;;3.65;;
79755;SDS011;69239;50.678;12.280;2023-07-24T11:51:36;7.30;;;4.13;;
79755;SDS011;69239;50.678;12.280;2023-07-24T11:54:08;6.25;;;3.97;;
79755;SDS011;69239;50.678;12.280;2023-07-24T11:56:36;6.18;;;4.03;;
79755;SDS011;69239;50.678;12.280;2023-07-24T12:01:39;8.25;;;4.05;;
79755;SDS011;69239;50.678;12.280;2023-07-24T12:04:05;8.57;;;4.32;;
79755;SDS011;69239;50.678;12.280;2023-07-24T12:06:31;6.05;;;3.78;;
79755;SDS011;69239;50.678;12.280;2023-07-24T12:09:03;6.10;;;3.35;;
79755;SDS011;69239;50.678;12.280;2023-07-24T12:11:30;6.45;;;3.42;;
79755;SDS011;69239;50.678;12.280;2023-07-24T12:13:56;7.28;;;4.00;;
79755;SDS011;69239;50.678;12.280;2023-07-24T12:16:21;5.68;;;3.45;;
79755;SDS011;69239;50.678;12.280;2023-07-24T12:18:47;6.93;;;4.05;;
79755;SDS011;69239;50.678;12.280;2023-07-24T12:21:12;8.02;;;4.07;;
79755;SDS011;69239;50.678;12.280;2023-07-24T12:23:37;5.40;;;3.63;;
79755;SDS011;69239;50.678;12.280;2023-07-24T12:26:03;6.18;;;3.45;;
79755;SDS011;69239;50.678;12.280;2023-07-24T12:28:29;7.32;;;4.45;;
79755;SDS011;69239;50.678;12.280;2023-07-24T12:30:54;6.65;;;4.25;;
79755;SDS011;69239;50.678;12.280;2023-07-24T12:33:20;6.93;;;3.83;;
79755;SDS011;69239;50.678;12.280;2023-07-24T12:35:48;6.13;;;4.05;;
79755;SDS011;69239;50.678;12.280;2023-07-24T12:38:17;9.80;;;4.60;;
79755;SDS011;69239;50.678;12.280;2023-07-24T12:40:43;6.90;;;4.47;;
79755;SDS011;69239;50.678;12.280;2023-07-24T12:43:09;7.03;;;4.45;;
79755;SDS011;69239;50.678;12.280;2023-07-24T12:45:34;8.30;;;4.13;;
79755;SDS011;69239;50.678;12.280;2023-07-24T12:48:00;6.53;;;4.20;;
79755;SDS011;69239;50.678;12.280;2023-07-24T12:50:25;6.47;;;4.00;;
79755;SDS011;69239;50.678;12.280;2023-07-24T12:52:50;7.00;;;4.07;;
79755;SDS011;69239;50.678;12.280;2023-07-24T12:55:16;7.75;;;4.82;;
79755;SDS011;69239;50.678;12.280;2023-07-24T12:57:41;7.72;;;4.78;;
79755;SDS011;69239;50.678;12.280;2023-07-24T13:00:07;7.85;;;4.38;;
79755;SDS011;69239;50.678;12.280;2023-07-24T13:02:34;8.00;;;4.45;;
79755;SDS011;69239;50.678;12.280;2023-07-24T13:04:59;7.05;;;5.00;;
79755;SDS011;69239;50.678;12.280;2023-07-24T13:07:25;8.43;;;4.93;;
79755;SDS011;69239;50.678;12.280;2023-07-24T13:09:50;8.30;;;4.50;;
79755;SDS011;69239;50.678;12.280;2023-07-24T13:12:15;7.78;;;4.60;;
79755;SDS011;69239;50.678;12.280;2023-07-24T13:14:41;7.65;;;5.13;;
79755;SDS011;69239;50.678;12.280;2023-07-24T13:17:07;8.40;;;4.70;;
79755;SDS011;69239;50.678;12.280;2023-07-24T13:19:33;8.85;;;4.90;;
79755;SDS011;69239;50.678;12.280;2023-07-24T13:21:58;7.75;;;5.10;;
79755;SDS011;69239;50.678;12.280;2023-07-24T13:24:24;5.55;;;4.25;;
79755;SDS011;69239;50.678;12.280;2023-07-24T13:26:49;7.88;;;4.90;;
79755;SDS011;69239;50.678;12.280;2023-07-24T13:29:14;6.88;;;3.90;;
79755;SDS011;69239;50.678;12.280;2023-07-24T13:31:40;7.43;;;4.70;;
79755;SDS011;69239;50.678;12.280;2023-07-24T13:34:06;6.47;;;4.28;;
79755;SDS011;69239;50.678;12.280;2023-07-24T13:36:33;8.13;;;5.13;;
79755;SDS011;69239;50.678;12.280;2023-07-24T13:38:59;8.40;;;4.25;;
79755;SDS011;69239;50.678;12.280;2023-07-24T13:41:24;8.55;;;4.60;;
79755;SDS011;69239;50.678;12.280;2023-07-24T13:43:49;7.95;;;5.10;;
79755;SDS011;69239;50.678;12.280;2023-07-24T13:46:15;9.88;;;4.97;;
79755;SDS011;69239;50.678;12.280;2023-07-24T13:48:40;9.18;;;5.85;;
79755;SDS011;69239;50.678;12.280;2023-07-24T13:51:05;7.95;;;5.32;;
79755;SDS011;69239;50.678;12.280;2023-07-24T13:53:31;10.73;;;5.22;;
79755;SDS011;69239;50.678;12.280;2023-07-24T13:55:56;8.57;;;5.40;;
79755;SDS011;69239;50.678;12.280;2023-07-24T13:58:22;9.70;;;5.60;;
79755;SDS011;69239;50.678;12.280;2023-07-24T14:00:47;7.10;;;5.20;;
79755;SDS011;69239;50.678;12.280;2023-07-24T14:03:12;8.13;;;5.55;;
79755;SDS011;69239;50.678;12.280;2023-07-24T14:05:38;10.35;;;5.50;;
79755;SDS011;69239;50.678;12.280;2023-07-24T14:08:03;9.93;;;5.47;;
79755;SDS011;69239;50.678;12.280;2023-07-24T14:10:29;9.35;;;5.70;;
79755;SDS011;69239;50.678;12.280;2023-07-24T14:12:55;8.07;;;5.75;;
79755;SDS011;69239;50.678;12.280;2023-07-24T14:15:20;9.43;;;5.88;;
79755;SDS011;69239;50.678;12.280;2023-07-24T14:17:46;10.15;;;5.47;;
79755;SDS011;69239;50.678;12.280;2023-07-24T14:20:11;7.72;;;5.40;;
79755;SDS011;69239;50.678;12.280;2023-07-24T14:22:37;7.55;;;5.53;;
79755;SDS011;69239;50.678;12.280;2023-07-24T14:25:03;9.23;;;5.88;;
79755;SDS011;69239;50.678;12.280;2023-07-24T14:27:29;9.82;;;6.00;;
79755;SDS011;69239;50.678;12.280;2023-07-24T14:29:54;8.75;;;5.85;;
79755;SDS011;69239;50.678;12.280;2023-07-24T14:32:20;8.35;;;5.18;;
79755;SDS011;69239;50.678;12.280;2023-07-24T14:34:49;8.60;;;5.60;;
79755;SDS011;69239;50.678;12.280;2023-07-24T14:37:16;9.25;;;5.70;;
79755;SDS011;69239;50.678;12.280;2023-07-24T14:39:41;9.27;;;5.35;;
79755;SDS011;69239;50.678;12.280;2023-07-24T14:42:07;8.88;;;5.70;;
79755;SDS011;69239;50.678;12.280;2023-07-24T14:44:32;8.32;;;5.80;;